Time;durP1;ratioP1;P1;durP2;ratioP2;P2;SDS_P1;SDS_P2;PMS_P1;PMS_P2;Temp;Humidity;BMP_temperature;BMP_pressure;BME280_temperature;BME280_humidity;BME280_pressure;Samples;Min_cycle;Max_cycle;Signal;HPM_P1;HPM_P2
2022/01/20 00:03:31;;;;;;;4.00;1.70;;;23.80;38.40;;;;;;5071067;28;20226;-62
2022/01/20 00:08:48;;;;;;;7.47;5.07;;;23.50;38.70;;;;;;5070985;28;20203;-63
2022/01/20 00:27:52;;;;;;;4.43;1.50;;;23.10;40.00;;;;;;5071645;28;20150;-61
2022/01/20 00:31:11;;;;;;;4.80;1.65;;;23.00;39.90;;;;;;5070129;28;20076;-62
2022/01/20 00:38:24;;;;;;;8.00;1.45;;;22.70;40.50;;;;;;5070687;28;20135;-61
2022/01/20 00:40:52;;;;;;;5.35;1.90;;;22.60;40.70;;;;;;5072041;28;20104;-61
2022/01/20 00:43:19;;;;;;;6.97;1.90;;;22.60;41.50;;;;;;5071640;28;20089;-61
2022/01/20 00:45:47;;;;;;;7.13;1.95;;;22.40;41.00;;;;;;5072732;28;20555;-64
2022/01/20 00:48:13;;;;;;;11.23;2.15;;;22.40;41.00;;;;;;5070836;28;20077;-62
2022/01/20 00:50:40;;;;;;;8.32;2.20;;;22.30;41.50;;;;;;5069274;28;20519;-63
2022/01/20 00:53:06;;;;;;;6.50;2.55;;;22.10;41.50;;;;;;5069554;28;20617;-61
2022/01/20 00:55:33;;;;;;;7.88;2.60;;;22.10;41.70;;;;;;5069079;28;20214;-62
2022/01/20 00:57:59;;;;;;;5.43;2.05;;;22.00;41.80;;;;;;5069085;28;20554;-62
2022/01/20 01:00:26;;;;;;;9.30;2.63;;;21.80;42.00;;;;;;5069784;28;20081;-63
2022/01/20 01:02:52;;;;;;;12.13;2.40;;;21.80;42.20;;;;;;5069093;28;20198;-63
2022/01/20 01:05:18;;;;;;;10.25;3.03;;;21.60;42.30;;;;;;5052500;28;20089;-63
2022/01/20 01:07:53;;;;;;;7.28;2.85;;;21.60;42.50;;;;;;5071104;28;20106;-62
2022/01/20 01:10:33;;;;;;;9.63;2.72;;;21.50;43.00;;;;;;5069802;28;20072;-60
2022/01/20 01:13:13;;;;;;;14.60;3.08;;;21.30;43.30;;;;;;5068635;28;20494;-61
2022/01/20 01:15:44;;;;;;;28.00;12.13;;;21.20;43.40;;;;;;5069956;28;20077;-60
2022/01/20 01:23:28;;;;;;;21.52;5.35;;;20.90;44.70;;;;;;5071568;28;20095;-61
2022/01/20 01:25:56;;;;;;;23.13;5.38;;;20.80;44.70;;;;;;5052349;28;20093;-59
2022/01/20 01:28:26;;;;;;;18.00;6.90;;;20.70;45.00;;;;;;5052980;28;20084;-57
2022/01/20 01:33:35;;;;;;;21.42;7.00;;;20.50;45.80;;;;;;5069836;28;20215;-60
2022/01/20 01:36:04;;;;;;;24.05;6.80;;;20.40;46.00;;;;;;5067207;28;20439;-56
2022/01/20 01:38:38;;;;;;;24.70;6.47;;;20.30;46.10;;;;;;5067810;28;20431;-59
2022/01/20 01:41:10;;;;;;;32.55;5.70;;;20.20;46.20;;;;;;5068779;28;20121;-60
2022/01/20 01:43:40;;;;;;;22.45;6.50;;;20.10;46.60;;;;;;5069106;28;20127;-62
2022/01/20 01:46:07;;;;;;;36.83;6.93;;;20.00;46.80;;;;;;5052499;28;20084;-60
2022/01/20 01:48:34;;;;;;;29.15;6.90;;;19.90;47.50;;;;;;5070441;28;20160;-63
2022/01/20 01:51:01;;;;;;;26.20;6.47;;;19.90;47.70;;;;;;5068552;28;20093;-59
2022/01/20 01:53:28;;;;;;;32.17;7.55;;;19.80;48.00;;;;;;5069679;28;20808;-60
2022/01/20 01:55:54;;;;;;;22.23;7.60;;;19.60;48.20;;;;;;5068801;28;20069;-60
2022/01/20 01:58:21;;;;;;;28.48;8.00;;;19.60;48.70;;;;;;5069239;28;20076;-64
2022/01/20 02:00:47;;;;;;;31.75;9.02;;;19.50;49.20;;;;;;5069787;28;20054;-58
2022/01/20 02:03:14;;;;;;;41.95;10.55;;;19.40;49.50;;;;;;5052373;28;20097;-58
2022/01/20 02:06:29;;;;;;;35.05;11.20;;;19.20;49.70;;;;;;5068855;28;20092;-59
2022/01/20 02:08:44;;;;;;;37.15;10.68;;;19.20;50.20;;;;;;5066766;28;20077;-58
2022/01/20 02:19:27;;;;;;;38.88;11.57;;;18.90;50.60;;;;;;5082142;28;20079;-57
2022/01/20 02:22:01;;;;;;;37.40;10.60;;;18.80;50.70;;;;;;5073160;28;20202;-54
2022/01/20 02:24:29;;;;;;;47.47;11.70;;;18.70;50.40;;;;;;5073387;28;20068;-58
2022/01/20 02:26:55;;;;;;;28.75;10.95;;;18.70;50.50;;;;;;5069558;28;20073;-59
2022/01/20 02:29:22;;;;;;;28.73;9.00;;;18.60;50.90;;;;;;5067958;28;20160;-60
2022/01/20 02:31:56;;;;;;;34.67;9.60;;;18.60;51.10;;;;;;5072545;28;20109;-60
2022/01/20 02:34:24;;;;;;;40.67;10.43;;;18.60;51.20;;;;;;5067820;28;20206;-59
2022/01/20 02:36:51;;;;;;;34.10;10.45;;;18.50;51.60;;;;;;5069286;28;20531;-59
2022/01/20 02:40:30;;;;;;;39.15;9.88;;;18.50;51.90;;;;;;5067876;28;20085;-58
2022/01/20 02:44:57;;;;;;;35.97;10.57;;;18.30;52.50;;;;;;5068247;28;20099;-59
2022/01/20 02:47:26;;;;;;;45.78;12.70;;;18.30;52.90;;;;;;5068486;28;20122;-58
2022/01/20 02:49:53;;;;;;;48.53;12.18;;;18.20;53.20;;;;;;5068178;28;20626;-60
2022/01/20 02:52:20;;;;;;;48.60;13.38;;;18.10;53.40;;;;;;5067699;28;20764;-59
2022/01/20 02:54:47;;;;;;;40.88;12.13;;;18.00;53.40;;;;;;5050994;28;20077;-61
2022/01/20 02:57:13;;;;;;;35.33;10.95;;;18.00;53.50;;;;;;5067726;28;20135;-60
2022/01/20 02:59:40;;;;;;;46.35;11.00;;;18.00;53.80;;;;;;5068178;28;20141;-62
2022/01/20 03:02:08;;;;;;;41.42;10.15;;;18.00;53.90;;;;;;5067101;28;20097;-62
2022/01/20 03:04:36;;;;;;;50.65;10.75;;;18.00;54.40;;;;;;5068264;28;20124;-59
2022/01/20 03:07:03;;;;;;;38.00;8.75;;;17.90;54.50;;;;;;5066526;28;20078;-60
2022/01/20 03:09:30;;;;;;;48.70;10.13;;;17.90;54.70;;;;;;5067170;28;20080;-60
2022/01/20 03:11:56;;;;;;;46.10;9.82;;;17.80;54.80;;;;;;5050871;28;20108;-60
2022/01/20 03:14:23;;;;;;;45.15;9.82;;;17.80;55.00;;;;;;5068906;28;20073;-61
2022/01/20 03:16:49;;;;;;;;;;;17.80;55.20;;;;;;5068790;28;20173;-61
2022/01/20 03:19:16;;;;;;;39.95;8.65;;;17.70;55.30;;;;;;5067821;28;19999;-60
2022/01/20 03:21:44;;;;;;;49.13;9.30;;;17.60;55.60;;;;;;5068153;28;20073;-61
2022/01/20 03:24:11;;;;;;;57.40;10.60;;;17.60;55.90;;;;;;5067976;28;20073;-61
2022/01/20 03:26:38;;;;;;;48.13;9.00;;;17.60;56.00;;;;;;5049397;28;20568;-60
2022/01/20 03:29:06;;;;;;;46.15;8.85;;;17.60;56.10;;;;;;5067859;28;20077;-60
2022/01/20 03:31:33;;;;;;;42.80;9.30;;;17.60;56.50;;;;;;5065882;28;20096;-60
2022/01/20 03:34:00;;;;;;;48.05;9.13;;;17.60;56.20;;;;;;5050442;28;20116;-60
2022/01/20 03:36:26;;;;;;;47.78;8.88;;;17.60;56.40;;;;;;5069440;28;20073;-60
2022/01/20 03:38:53;;;;;;;37.97;8.55;;;17.60;56.40;;;;;;5066995;28;20095;-62
2022/01/20 03:41:20;;;;;;;41.35;8.98;;;17.50;56.50;;;;;;5066601;28;20339;-62
2022/01/20 03:43:47;;;;;;;58.03;9.95;;;17.50;57.30;;;;;;5066813;28;20087;-65
2022/01/20 03:46:13;;;;;;;52.67;9.43;;;17.40;57.80;;;;;;5067761;28;20582;-59
2022/01/20 03:48:51;;;;;;;38.08;9.02;;;17.40;56.90;;;;;;5068523;28;20085;-61
2022/01/20 03:51:25;;;;;;;47.42;9.35;;;17.20;56.70;;;;;;5065968;28;20069;-61
2022/01/20 03:53:54;;;;;;;44.65;9.48;;;17.20;56.80;;;;;;5066992;28;20167;-60
2022/01/20 03:56:21;;;;;;;48.75;11.05;;;17.10;56.80;;;;;;5066928;28;20131;-62
2022/01/20 03:58:48;;;;;;;49.33;12.80;;;17.00;56.90;;;;;;5066968;28;20499;-58
2022/01/20 04:01:15;;;;;;;44.72;12.23;;;16.90;57.00;;;;;;5068734;28;20446;-61
2022/01/20 04:03:41;;;;;;;48.33;12.30;;;17.00;57.50;;;;;;5050005;28;20089;-62
2022/01/20 04:06:08;;;;;;;59.13;13.82;;;17.00;57.30;;;;;;5033690;28;20135;-60
2022/01/20 04:08:38;;;;;;;69.80;15.65;;;16.90;57.30;;;;;;5068112;28;20073;-63
2022/01/20 04:11:08;;;;;;;45.22;13.35;;;16.80;57.50;;;;;;5071186;28;20089;-62
2022/01/20 04:13:35;;;;;;;52.28;14.50;;;16.80;57.80;;;;;;5064623;28;20077;-61
2022/01/20 04:16:13;;;;;;;60.63;14.30;;;16.70;57.80;;;;;;5035198;28;20603;-59
2022/01/20 04:18:52;;;;;;;58.97;14.20;;;16.60;58.00;;;;;;5067722;28;20104;-62
2022/01/20 04:21:27;;;;;;;78.90;14.02;;;16.60;58.40;;;;;;5070188;28;20069;-60
2022/01/20 04:23:54;;;;;;;49.95;14.57;;;16.60;59.20;;;;;;5069213;28;20084;-61
2022/01/20 04:26:22;;;;;;;70.95;15.70;;;16.50;58.70;;;;;;5068843;28;20085;-62
2022/01/20 04:28:48;;;;;;;55.83;15.70;;;16.50;59.00;;;;;;5069552;28;20097;-60
2022/01/20 04:31:15;;;;;;;81.25;17.67;;;16.50;58.80;;;;;;5070103;28;20527;-59
2022/01/20 04:33:41;;;;;;;61.75;17.02;;;16.50;59.30;;;;;;5052980;28;20078;-60
2022/01/20 04:36:08;;;;;;;;;;;16.60;59.80;;;;;;5069832;28;20123;-59
2022/01/20 04:38:34;;;;;;;62.63;18.30;;;16.60;59.50;;;;;;5053244;28;19992;-58
2022/01/20 04:41:01;;;;;;;77.07;18.15;;;16.60;59.70;;;;;;5075181;28;20077;-61
2022/01/20 04:43:27;;;;;;;75.88;17.65;;;16.60;59.60;;;;;;5069012;28;20159;-60
2022/01/20 04:46:10;;;;;;;71.82;18.10;;;16.50;59.50;;;;;;5069779;28;20089;-61
2022/01/20 04:49:03;;;;;;;69.47;19.25;;;16.50;59.60;;;;;;5069526;28;20085;-59
2022/01/20 04:59:30;;;;;;;83.43;18.75;;;16.20;61.00;;;;;;5069631;28;20147;-60
2022/01/20 05:01:57;;;;;;;94.95;20.13;;;16.30;61.20;;;;;;5069489;28;20112;-59
2022/01/20 05:04:25;;;;;;;78.80;17.92;;;16.20;61.50;;;;;;5069392;28;20154;-63
2022/01/20 05:06:54;;;;;;;72.20;18.55;;;16.20;61.50;;;;;;5072692;28;20191;-59
2022/01/20 05:09:22;;;;;;;83.97;19.08;;;16.10;61.50;;;;;;5069107;28;20116;-58
2022/01/20 05:11:59;;;;;;;70.13;18.60;;;16.10;61.70;;;;;;5069328;28;20069;-59
2022/01/20 05:14:27;;;;;;;68.18;18.92;;;16.00;61.80;;;;;;5070492;28;20081;-57
2022/01/20 05:16:55;;;;;;;80.05;17.63;;;15.90;62.30;;;;;;5072633;28;20112;-61
2022/01/20 05:19:27;;;;;;;71.32;19.60;;;15.90;62.90;;;;;;5066012;28;20477;-63
2022/01/20 05:21:53;;;;;;;58.70;16.75;;;15.90;62.70;;;;;;5072751;28;20435;-58
2022/01/20 05:24:23;;;;;;;75.00;19.30;;;15.90;80.70;;;;;;5070862;28;20095;-57
2022/01/20 05:26:51;;;;;;;74.45;19.83;;;15.80;75.80;;;;;;5068904;28;20056;-58
2022/01/20 05:29:21;;;;;;;76.28;17.92;;;15.80;63.30;;;;;;5068838;28;20073;-57
2022/01/20 05:31:49;;;;;;;76.40;18.00;;;15.80;63.40;;;;;;5068666;28;20593;-60
2022/01/20 05:34:16;;;;;;;63.13;17.05;;;15.80;63.50;;;;;;5051471;28;20455;-60
2022/01/20 05:36:44;;;;;;;74.80;18.55;;;15.70;63.70;;;;;;5068605;28;20081;-60
2022/01/20 05:39:10;;;;;;;56.20;17.80;;;15.70;63.90;;;;;;5051969;28;20077;-58
2022/01/20 05:41:37;;;;;;;77.28;18.27;;;15.70;64.10;;;;;;5068330;28;20101;-61
2022/01/20 05:44:03;;;;;;;58.35;16.38;;;15.60;64.20;;;;;;5069266;28;20123;-60
2022/01/20 05:46:36;;;;;;;;;;;15.50;64.20;;;;;;5069695;28;20808;-58
2022/01/20 05:49:20;;;;;;;68.07;18.38;;;15.40;64.20;;;;;;5070319;28;19973;-62
2022/01/20 05:51:49;;;;;;;77.47;19.20;;;15.30;64.60;;;;;;5069565;28;20534;-60
2022/01/20 05:54:16;;;;;;;83.60;19.05;;;15.30;65.00;;;;;;5068428;28;20072;-60
2022/01/20 05:56:43;;;;;;;86.97;22.33;;;15.20;65.30;;;;;;5068473;28;20166;-60
2022/01/20 05:59:09;;;;;;;89.05;23.33;;;14.80;89.00;;;;;;5068059;28;20538;-62
2022/01/20 06:01:36;;;;;;;;;;;15.10;65.60;;;;;;5068969;28;20085;-58
2022/01/20 06:04:05;;;;;;;76.63;22.10;;;15.10;65.60;;;;;;5068255;28;19980;-58
2022/01/20 06:06:32;;;;;;;92.72;24.08;;;15.00;65.80;;;;;;5067958;28;20234;-57
2022/01/20 06:08:59;;;;;;;81.97;22.83;;;15.00;66.00;;;;;;5068749;28;20172;-59
2022/01/20 06:11:25;;;;;;;88.20;21.70;;;15.00;66.50;;;;;;5067607;28;20085;-58
2022/01/20 06:13:51;;;;;;;77.90;21.40;;;15.00;66.80;;;;;;5051656;28;20119;-60
2022/01/20 06:16:17;;;;;;;;;;;15.00;66.90;;;;;;5068820;28;20117;-62
2022/01/20 06:18:44;;;;;;;72.85;20.67;;;15.30;69.60;;;;;;5070100;28;19940;-57
2022/01/20 06:21:10;;;;;;;;;;;15.00;66.70;;;;;;5068573;28;20076;-59
2022/01/20 06:23:36;;;;;;;76.55;20.83;;;15.10;67.40;;;;;;5069489;28;20438;-56
2022/01/20 06:26:05;;;;;;;74.82;19.70;;;15.20;70.70;;;;;;5067953;28;20107;-62
2022/01/20 06:28:33;;;;;;;76.50;19.15;;;15.20;99.90;;;;;;5068892;28;20027;-58
2022/01/20 06:30:59;;;;;;;70.30;18.77;;;15.10;65.40;;;;;;5067979;28;20074;-59
2022/01/20 06:33:26;;;;;;;60.95;18.58;;;15.10;66.10;;;;;;5067763;28;20216;-59
2022/01/20 06:35:53;;;;;;;68.47;18.00;;;15.10;65.90;;;;;;5068373;28;20092;-61
2022/01/20 06:38:19;;;;;;;62.72;15.98;;;15.00;65.60;;;;;;5066959;28;20566;-59
2022/01/20 06:40:46;;;;;;;56.10;16.27;;;14.90;65.80;;;;;;5067154;28;20473;-62
2022/01/20 06:43:12;;;;;;;53.50;16.15;;;15.00;66.10;;;;;;5068690;28;20085;-57
2022/01/20 06:45:38;;;;;;;;;;;15.00;65.70;;;;;;5068211;28;20176;-59
2022/01/20 06:48:05;;;;;;;33.25;14.40;;;14.90;65.20;;;;;;5069431;28;19995;-59
2022/01/20 06:50:31;;;;;;;;;;;14.90;64.40;;;;;;5069039;28;20156;-60
2022/01/20 06:52:57;;;;;;;42.92;11.50;;;14.90;63.80;;;;;;5070712;28;19965;-63
2022/01/20 06:55:24;;;;;;;34.67;11.18;;;14.80;63.30;;;;;;5070670;28;20103;-60
2022/01/20 06:57:50;;;;;;;38.83;12.10;;;14.70;63.30;;;;;;5069831;28;20085;-58
2022/01/20 07:00:20;;;;;;;53.42;11.27;;;14.60;63.40;;;;;;5065674;28;20084;-59
2022/01/20 07:02:47;;;;;;;38.55;10.23;;;14.60;63.40;;;;;;5070268;28;20538;-57
2022/01/20 07:05:17;;;;;;;44.35;11.55;;;14.80;94.20;;;;;;5087832;28;20179;-60
2022/01/20 07:07:43;;;;;;;34.63;11.20;;;14.90;99.30;;;;;;5069319;28;20785;-57
2022/01/20 07:10:13;;;;;;;30.38;11.18;;;14.40;77.50;;;;;;5068101;28;20391;-59
2022/01/20 07:12:44;;;;;;;37.45;12.77;;;14.40;77.60;;;;;;5073441;28;20122;-59
2022/01/20 07:15:11;;;;;;;35.45;13.40;;;14.40;63.40;;;;;;5053306;28;20167;-57
2022/01/20 07:17:37;;;;;;;35.17;9.80;;;14.20;63.40;;;;;;5068728;28;20168;-59
2022/01/20 07:20:04;;;;;;;;;;;14.20;63.50;;;;;;5068389;28;20073;-58
2022/01/20 07:22:30;;;;;;;29.25;6.72;;;14.30;62.40;;;;;;5067798;28;19968;-58
2022/01/20 07:24:57;;;;;;;;;;;14.30;61.00;;;;;;5069822;28;20463;-58
2022/01/20 07:27:23;;;;;;;14.00;3.03;;;14.40;59.40;;;;;;5070663;28;19961;-59
2022/01/20 07:29:49;;;;;;;;;;;14.60;58.00;;;;;;5069301;28;20634;-59
2022/01/20 07:32:15;;;;;;;5.57;2.30;;;14.70;56.20;;;;;;5069054;28;19992;-61
2022/01/20 07:34:41;;;;;;;;;;;14.90;55.40;;;;;;5072406;28;20108;-61
2022/01/20 07:37:08;;;;;;;5.03;1.98;;;15.00;54.40;;;;;;5074955;28;19957;-62
2022/01/20 07:39:34;;;;;;;;;;;15.10;54.00;;;;;;5067157;28;20077;-61
2022/01/20 07:42:00;;;;;;;6.00;1.90;;;15.20;54.30;;;;;;5071972;28;20475;-60
2022/01/20 07:44:27;;;;;;;6.03;1.90;;;15.20;54.70;;;;;;5052797;28;20152;-60
2022/01/20 07:46:53;;;;;;;;;;;15.20;54.80;;;;;;5066537;28;20073;-60
2022/01/20 07:49:21;;;;;;;7.63;2.28;;;15.20;54.60;;;;;;5049659;28;20055;-60
2022/01/20 07:51:47;;;;;;;10.48;2.22;;;15.10;54.70;;;;;;5070937;28;20076;-57
2022/01/20 07:54:14;;;;;;;;;;;15.10;54.80;;;;;;5054040;28;20543;-63
2022/01/20 07:56:40;;;;;;;6.88;2.10;;;15.00;54.70;;;;;;5074922;28;20415;-59
2022/01/20 07:59:08;;;;;;;9.32;1.98;;;14.80;92.10;;;;;;5071922;28;20512;-61
2022/01/20 08:01:34;;;;;;;7.07;2.45;;;14.90;80.40;;;;;;5069349;28;20028;-59
2022/01/20 08:04:01;;;;;;;10.73;2.13;;;14.40;84.10;;;;;;5068288;28;20184;-58
2022/01/20 08:06:27;;;;;;;;;;;14.90;69.90;;;;;;5056791;28;20429;-58
2022/01/20 08:08:53;;;;;;;7.13;2.40;;;15.00;70.60;;;;;;5072470;28;20391;-60
2022/01/20 08:11:21;;;;;;;;;;;14.90;55.40;;;;;;5055937;28;20089;-59
2022/01/20 08:13:48;;;;;;;13.35;2.38;;;14.70;55.10;;;;;;5071513;28;20429;-57
2022/01/20 08:16:14;;;;;;;6.55;2.35;;;14.70;55.70;;;;;;5072085;28;20547;-59
2022/01/20 08:18:41;;;;;;;7.32;2.55;;;14.60;55.80;;;;;;5076478;28;20152;-58
2022/01/20 08:21:07;;;;;;;9.35;2.53;;;14.50;55.90;;;;;;5070332;28;20618;-58
2022/01/20 08:23:34;;;;;;;11.98;3.50;;;14.20;60.80;;;;;;5053581;28;20080;-58
2022/01/20 08:26:02;;;;;;;15.05;3.88;;;14.30;94.00;;;;;;5071299;28;20100;-56
2022/01/20 08:28:28;;;;;;;8.50;3.58;;;14.50;54.60;;;;;;5071040;28;20028;-59
2022/01/20 08:30:54;;;;;;;;;;;14.60;55.10;;;;;;5073025;28;20163;-57
2022/01/20 08:33:21;;;;;;;7.35;3.38;;;14.60;54.90;;;;;;5078458;28;20004;-58
2022/01/20 08:35:47;;;;;;;;;;;14.60;54.70;;;;;;5073726;28;20455;-57
2022/01/20 08:38:13;;;;;;;16.20;3.42;;;14.40;88.00;;;;;;5072020;28;19957;-57
2022/01/20 08:40:40;;;;;;;14.23;3.67;;;14.40;90.70;;;;;;5071839;28;20057;-59
2022/01/20 08:43:07;;;;;;;9.63;3.00;;;14.50;54.80;;;;;;5071975;28;20067;-62
2022/01/20 08:45:35;;;;;;;8.30;3.05;;;14.50;55.00;;;;;;5070065;28;20094;-60
2022/01/20 08:48:03;;;;;;;9.05;2.78;;;14.50;54.80;;;;;;5071002;28;20080;-60
2022/01/20 08:50:32;;;;;;;6.13;3.03;;;14.40;54.80;;;;;;5053843;28;20082;-59
2022/01/20 08:52:59;;;;;;;7.30;2.83;;;14.40;54.90;;;;;;5053733;28;20069;-58
2022/01/20 08:55:29;;;;;;;11.40;3.88;;;14.30;55.10;;;;;;5067705;28;20558;-58
2022/01/20 08:57:57;;;;;;;8.68;2.78;;;14.30;55.30;;;;;;5070515;28;20577;-58
2022/01/20 09:00:27;;;;;;;6.78;2.75;;;14.40;89.70;;;;;;5068637;28;20231;-62
2022/01/20 09:02:53;;;;;;;7.28;3.13;;;14.20;55.70;;;;;;5069123;28;20067;-62
2022/01/20 09:05:20;;;;;;;6.28;2.70;;;14.20;54.60;;;;;;5067844;28;20540;-57
2022/01/20 09:07:46;;;;;;;8.00;3.25;;;14.20;66.20;;;;;;5068912;28;20508;-59
2022/01/20 09:10:19;;;;;;;14.60;3.17;;;14.20;55.10;;;;;;5069648;28;20545;-58
2022/01/20 09:15:31;;;;;;;12.13;3.10;;;14.00;65.80;;;;;;5070045;28;20080;-56
2022/01/20 09:18:01;;;;;;;6.90;2.60;;;14.20;63.40;;;;;;5071719;28;20480;-60
2022/01/20 09:20:29;;;;;;;14.43;3.45;;;14.10;55.90;;;;;;5069037;28;20118;-58
2022/01/20 09:22:55;;;;;;;10.98;3.53;;;14.10;56.20;;;;;;5068995;28;20089;-60
2022/01/20 09:25:22;;;;;;;;;;;14.10;56.20;;;;;;5071927;28;20188;-62
2022/01/20 09:27:50;;;;;;;13.27;3.50;;;14.10;56.40;;;;;;5072661;28;19956;-58
2022/01/20 09:30:19;;;;;;;7.60;3.00;;;14.00;56.70;;;;;;5067432;28;20076;-59
2022/01/20 09:32:57;;;;;;;8.68;3.20;;;13.90;59.30;;;;;;5071490;28;20138;-58
2022/01/20 09:35:33;;;;;;;7.00;3.20;;;14.00;79.10;;;;;;5071479;28;20561;-58
2022/01/20 09:38:01;;;;;;;9.40;2.90;;;12.40;56.00;;;;;;5052262;28;20110;-59
2022/01/20 09:40:31;;;;;;;9.77;2.83;;;14.10;56.30;;;;;;5073003;28;20080;-59
2022/01/20 09:42:58;;;;;;;6.65;2.20;;;14.10;55.90;;;;;;5071013;28;20543;-58
2022/01/20 09:45:24;;;;;;;6.53;2.47;;;14.10;56.30;;;;;;5070406;28;20082;-62
2022/01/20 09:47:51;;;;;;;3.22;2.20;;;14.10;55.20;;;;;;5052842;28;20183;-57
2022/01/20 09:50:19;;;;;;;;;;;14.20;55.30;;;;;;5071745;28;20535;-57
2022/01/20 09:52:47;;;;;;;8.73;2.67;;;14.20;55.30;;;;;;5071085;28;19948;-62
2022/01/20 09:55:15;;;;;;;5.22;2.90;;;14.20;66.20;;;;;;5068129;28;20060;-59
2022/01/20 09:57:41;;;;;;;10.57;2.80;;;14.10;55.60;;;;;;5068869;28;20085;-59
2022/01/20 10:00:12;;;;;;;6.80;3.17;;;14.00;55.80;;;;;;5067383;28;21650;-58
2022/01/20 10:02:50;;;;;;;6.35;3.03;;;13.60;79.70;;;;;;5066854;28;20856;-62
2022/01/20 10:05:32;;;;;;;9.07;3.10;;;13.90;71.20;;;;;;5073815;28;20078;-59
2022/01/20 10:08:08;;;;;;;6.50;2.67;;;14.30;77.10;;;;;;5071552;28;20049;-58
2022/01/20 10:10:59;;;;;;;3.67;2.80;;;13.90;55.70;;;;;;5070448;28;20079;-62
2022/01/20 10:13:32;;;;;;;8.85;2.75;;;13.60;62.90;;;;;;5067216;28;20051;-58
2022/01/20 10:16:19;;;;;;;5.07;2.40;;;14.00;76.50;;;;;;5053689;28;20052;-58
2022/01/20 10:19:00;;;;;;;7.88;3.10;;;13.60;78.30;;;;;;5057071;28;20059;-57
2022/01/20 10:21:30;;;;;;;6.20;2.67;;;13.90;71.70;;;;;;5068446;28;20106;-61
2022/01/20 10:24:05;;;;;;;5.20;2.58;;;13.70;74.50;;;;;;5070226;28;20504;-59
2022/01/20 10:26:32;;;;;;;5.22;2.75;;;13.90;54.90;;;;;;5055146;28;20554;-61
2022/01/20 10:29:09;;;;;;;4.75;2.10;;;13.70;57.60;;;;;;5069934;28;20095;-59
2022/01/20 10:31:41;;;;;;;5.45;1.73;;;13.90;70.00;;;;;;5065708;28;20069;-58
2022/01/20 10:34:30;;;;;;;3.65;2.08;;;14.20;78.10;;;;;;5068962;28;20068;-62
2022/01/20 10:37:01;;;;;;;5.95;2.33;;;13.90;55.40;;;;;;5067462;28;20063;-58
2022/01/20 10:39:29;;;;;;;8.48;2.63;;;13.90;55.30;;;;;;5052888;28;20075;-57
2022/01/20 10:42:04;;;;;;;5.57;2.05;;;13.90;54.60;;;;;;5070454;28;20118;-58
2022/01/20 10:44:59;;;;;;;4.97;2.22;;;13.90;75.60;;;;;;5069124;28;20083;-59
2022/01/20 10:47:31;;;;;;;8.95;2.53;;;13.90;54.30;;;;;;5066923;28;20097;-56
2022/01/20 10:50:10;;;;;;;4.18;2.00;;;13.60;81.50;;;;;;5071182;28;20111;-55
2022/01/20 10:52:37;;;;;;;6.97;2.30;;;;;;;;;;5069068;28;20087;-61
2022/01/20 10:55:07;;;;;;;5.10;2.00;;;14.20;84.80;;;;;;5065742;28;20063;-57
2022/01/20 10:57:35;;;;;;;6.20;2.20;;;14.00;54.30;;;;;;5067745;28;20122;-61
2022/01/20 11:00:12;;;;;;;5.55;2.20;;;13.50;89.50;;;;;;5070720;28;20043;-62
2022/01/20 11:02:39;;;;;;;10.32;2.05;;;;;;;;;;5070045;28;20091;-60
2022/01/20 11:05:06;;;;;;;;;;;13.80;53.70;;;;;;5068717;28;20079;-58
2022/01/20 11:07:33;;;;;;;;;;;13.90;54.30;;;;;;5068093;28;20004;-61
2022/01/20 11:10:03;;;;;;;5.83;2.00;;;13.80;91.60;;;;;;5050749;28;19962;-57
2022/01/20 11:12:30;;;;;;;7.97;2.17;;;;;;;;;;5068068;28;20648;-59
2022/01/20 11:15:01;;;;;;;3.58;2.03;;;13.90;53.50;;;;;;5068002;28;20034;-59
2022/01/20 11:17:31;;;;;;;6.63;2.13;;;13.80;54.00;;;;;;5069442;28;20156;-59
2022/01/20 11:20:27;;;;;;;5.35;2.00;;;13.90;54.10;;;;;;5049709;28;20084;-62
2022/01/20 11:23:04;;;;;;;5.18;2.10;;;13.90;54.10;;;;;;5062291;28;20081;-62
2022/01/20 11:25:35;;;;;;;4.43;2.10;;;14.00;53.70;;;;;;5068517;28;20097;-62
2022/01/20 11:28:08;;;;;;;5.88;2.25;;;14.00;53.20;;;;;;5049878;28;20073;-61
2022/01/20 11:30:39;;;;;;;8.90;2.45;;;14.10;52.90;;;;;;5074149;28;20070;-59
2022/01/20 11:33:18;;;;;;;9.25;2.70;;;14.10;53.00;;;;;;5073273;28;20140;-60
2022/01/20 11:35:50;;;;;;;8.55;3.05;;;14.20;52.70;;;;;;5072761;28;20085;-57
2022/01/20 11:38:20;;;;;;;6.32;3.08;;;14.10;52.70;;;;;;5069757;28;20120;-57
2022/01/20 11:40:58;;;;;;;6.00;2.70;;;14.20;52.60;;;;;;5071314;28;20515;-58
2022/01/20 11:43:38;;;;;;;8.77;2.92;;;14.10;53.00;;;;;;5072976;28;20190;-57
2022/01/20 11:46:14;;;;;;;9.32;2.90;;;14.10;52.80;;;;;;5074607;28;20092;-61
2022/01/20 11:49:00;;;;;;;11.40;3.25;;;14.00;53.20;;;;;;5075068;28;20075;-59
2022/01/20 11:51:41;;;;;;;7.60;2.80;;;14.00;52.90;;;;;;5069479;28;20119;-57
2022/01/20 11:54:09;;;;;;;6.57;2.83;;;14.00;52.90;;;;;;5071530;28;20069;-58
2022/01/20 11:56:37;;;;;;;6.75;2.80;;;13.90;53.20;;;;;;5070429;28;20111;-58
2022/01/20 11:59:06;;;;;;;7.18;2.90;;;13.90;53.60;;;;;;5058814;28;20106;-58
2022/01/20 12:01:53;;;;;;;5.00;2.80;;;13.90;53.60;;;;;;5072661;28;20169;-59
2022/01/20 12:07:42;;;;;;;5.43;2.13;;;13.80;53.50;;;;;;5071503;28;20565;-63
2022/01/20 12:10:12;;;;;;;5.10;1.77;;;13.70;53.40;;;;;;5072777;28;20164;-63
2022/01/20 12:12:39;;;;;;;3.75;1.50;;;13.70;53.50;;;;;;5070842;28;20080;-58
2022/01/20 12:15:14;;;;;;;5.53;1.90;;;13.70;53.50;;;;;;5075973;28;20079;-61
2022/01/20 12:17:51;;;;;;;4.57;1.88;;;13.70;53.60;;;;;;5073802;28;20526;-57
2022/01/20 12:20:18;;;;;;;5.63;2.00;;;13.70;53.70;;;;;;5057322;28;20084;-57
2022/01/20 12:22:46;;;;;;;2.97;1.88;;;13.60;53.90;;;;;;5051975;28;20108;-60
2022/01/20 12:25:18;;;;;;;5.00;2.10;;;13.60;54.50;;;;;;5056095;28;20084;-58
2022/01/20 12:27:45;;;;;;;5.13;1.92;;;13.60;54.00;;;;;;5074418;28;20073;-60
2022/01/20 12:30:22;;;;;;;6.75;2.13;;;13.50;54.40;;;;;;5072255;28;20123;-59
2022/01/20 12:32:56;;;;;;;5.28;2.42;;;13.50;54.40;;;;;;5085571;28;20143;-61
2022/01/20 12:35:23;;;;;;;8.07;2.55;;;13.40;54.50;;;;;;5069151;28;20104;-62
2022/01/20 12:37:49;;;;;;;6.30;2.78;;;13.30;54.90;;;;;;5071518;28;20073;-57
2022/01/20 12:40:20;;;;;;;;;;;13.20;94.80;;;;;;5070640;28;20164;-59
2022/01/20 12:42:48;;;;;;;8.15;3.75;;;13.20;55.20;;;;;;5069972;28;19963;-61
2022/01/20 12:48:17;;;;;;;4.78;3.20;;;13.00;55.70;;;;;;5073578;28;20117;-61
2022/01/20 12:50:54;;;;;;;7.68;3.55;;;12.90;56.10;;;;;;5071408;28;20074;-63
2022/01/20 12:53:44;;;;;;;5.82;3.00;;;12.80;56.40;;;;;;5074383;28;20076;-61
2022/01/20 12:56:14;;;;;;;8.63;3.00;;;12.70;56.60;;;;;;5070803;28;20108;-61
2022/01/20 12:58:53;;;;;;;9.35;2.55;;;12.70;56.70;;;;;;5071497;28;20633;-58
2022/01/20 13:01:20;;;;;;;14.98;3.05;;;12.70;57.00;;;;;;5068929;28;20154;-58
2022/01/20 13:03:48;;;;;;;14.75;3.70;;;12.70;57.10;;;;;;5069066;28;20101;-62
2022/01/20 13:06:23;;;;;;;11.55;2.92;;;12.60;57.30;;;;;;5072702;28;20124;-59
2022/01/20 13:09:10;;;;;;;11.70;2.92;;;12.50;57.60;;;;;;5068531;28;20111;-60
2022/01/20 13:11:52;;;;;;;9.35;3.00;;;12.50;58.00;;;;;;5068748;28;21661;-61
2022/01/20 13:14:22;;;;;;;10.10;3.28;;;12.40;58.50;;;;;;5069553;28;20555;-58
2022/01/20 13:16:54;;;;;;;7.97;3.40;;;12.40;58.30;;;;;;5072419;28;20077;-59
2022/01/20 13:19:31;;;;;;;8.60;4.00;;;12.30;58.40;;;;;;5069463;28;20116;-62
2022/01/20 13:21:58;;;;;;;8.10;3.85;;;12.20;58.50;;;;;;5070546;28;20159;-58
2022/01/20 13:24:29;;;;;;;8.70;4.32;;;12.20;58.70;;;;;;5069083;28;20507;-57
2022/01/20 13:26:57;;;;;;;16.65;4.95;;;12.20;58.80;;;;;;5052433;28;20085;-56
2022/01/20 13:29:25;;;;;;;12.70;4.47;;;12.30;59.00;;;;;;5071279;28;20073;-59
2022/01/20 13:32:00;;;;;;;11.70;4.65;;;12.20;58.90;;;;;;5051022;28;20210;-59
2022/01/20 13:34:27;;;;;;;14.35;4.45;;;12.20;58.90;;;;;;5068649;28;20080;-58
2022/01/20 13:36:54;;;;;;;12.75;4.10;;;12.20;59.10;;;;;;5068907;28;20073;-59
2022/01/20 13:39:31;;;;;;;9.48;3.72;;;12.20;59.30;;;;;;5069522;28;20444;-58
2022/01/20 13:42:26;;;;;;;8.65;3.72;;;12.20;59.10;;;;;;5073063;28;20076;-57
2022/01/20 13:45:14;;;;;;;12.35;3.53;;;12.30;59.10;;;;;;5070669;28;20104;-56
2022/01/20 13:47:55;;;;;;;9.23;3.55;;;12.30;59.20;;;;;;5068880;28;20125;-59
2022/01/20 13:50:22;;;;;;;15.80;3.90;;;12.30;59.60;;;;;;5070160;28;20110;-58
2022/01/20 13:52:48;;;;;;;8.45;4.13;;;12.20;59.50;;;;;;5071587;28;20077;-61
2022/01/20 13:55:32;;;;;;;13.57;4.13;;;12.20;59.50;;;;;;5067917;28;20099;-56
2022/01/20 13:58:01;;;;;;;7.22;3.55;;;12.20;60.00;;;;;;5058977;28;20121;-56
2022/01/20 14:00:38;;;;;;;8.45;3.78;;;12.20;60.00;;;;;;5070682;28;20087;-57
2022/01/20 14:03:08;;;;;;;8.93;3.65;;;12.20;60.00;;;;;;5068470;28;20162;-56